Terminal Aerodrome Forecast
Issued by NWS

Current Version | Previous Version | Text Only | Print | Product List | Glossary On
Versions: 1 2 3 4 5 6 7 8 9 10 11 12 13 14 15
000
FTUS45 KRIW 271100
TAFCPR
TAF
KCPR 271139Z 2712/2812 04006KT P6SM VCSH SCT050 OVC100
     FM271600 09007KT P6SM -SHRA SCT040 OVC080
     FM272000 10008KT P6SM -SHRA VCTS FEW030 BKN060CB
     FM280000 VRB06KT P6SM -SHRA SCT030 BKN045
     FM280300 VRB05KT P6SM VCSH BKN040
     FM280600 28006KT P6SM SCT040 BKN060=

USA.gov is the U.S. government's official web portal to all federal, state and local government web resources and services.